Terminal Aerodrome Forecast
Issued by NWS Wilmington, OH

Current Version | Previous Version | Graphics & Text | Print | Product List | Glossary On
Versions: 1 2 3 4 5 6 7 8 9 10 11 12 13 14 15 16 17 18 19 20 21 22
000
FTUS41 KILN 240300 AAB
TAFCMH
TAF AMD
KCMH 240339Z 2404/2424 02012KT P6SM SCT015 OVC035
      TEMPO 2404/2406 OVC015
     FM240600 02008KT P6SM BKN025 OVC035
     FM240800 01007KT P6SM SKC
     FM241500 02009KT P6SM BKN035
     FM242300 03006KT P6SM SCT035=

USA.gov is the U.S. government's official web portal to all federal, state and local government web resources and services.